sensor_id;sensor_type;location;lat;lon;timestamp;P1;durP1;ratioP1;P2;durP2;ratioP2
67717;SDS011;54511;47.532;19.180;2022-09-27T00:00:57;23.83;;;12.05;;
67717;SDS011;54511;47.532;19.180;2022-09-27T00:03:25;21.95;;;12.52;;
67717;SDS011;54511;47.532;19.180;2022-09-27T00:06:02;25.12;;;12.52;;
67717;SDS011;54511;47.532;19.180;2022-09-27T00:08:32;24.00;;;12.77;;
67717;SDS011;54511;47.532;19.180;2022-09-27T00:11:00;28.27;;;12.60;;
67717;SDS011;54511;47.532;19.180;2022-09-27T00:13:28;20.92;;;10.85;;
67717;SDS011;54511;47.532;19.180;2022-09-27T00:15:56;19.75;;;10.30;;
67717;SDS011;54511;47.532;19.180;2022-09-27T00:18:24;23.62;;;10.63;;
67717;SDS011;54511;47.532;19.180;2022-09-27T00:20:51;21.37;;;11.23;;
67717;SDS011;54511;47.532;19.180;2022-09-27T00:23:20;28.35;;;12.30;;
67717;SDS011;54511;47.532;19.180;2022-09-27T00:25:54;22.50;;;11.32;;
67717;SDS011;54511;47.532;19.180;2022-09-27T00:28:23;20.70;;;10.60;;
67717;SDS011;54511;47.532;19.180;2022-09-27T00:30:52;22.60;;;11.55;;
67717;SDS011;54511;47.532;19.180;2022-09-27T00:33:20;21.20;;;11.57;;
67717;SDS011;54511;47.532;19.180;2022-09-27T00:35:48;25.80;;;12.18;;
67717;SDS011;54511;47.532;19.180;2022-09-27T00:38:15;23.42;;;12.30;;
67717;SDS011;54511;47.532;19.180;2022-09-27T00:40:43;28.12;;;12.98;;
67717;SDS011;54511;47.532;19.180;2022-09-27T00:43:15;23.70;;;11.75;;
67717;SDS011;54511;47.532;19.180;2022-09-27T00:45:43;23.25;;;11.40;;
67717;SDS011;54511;47.532;19.180;2022-09-27T00:48:14;26.27;;;12.77;;
67717;SDS011;54511;47.532;19.180;2022-09-27T00:50:44;24.87;;;11.68;;
67717;SDS011;54511;47.532;19.180;2022-09-27T00:53:14;25.70;;;12.37;;
67717;SDS011;54511;47.532;19.180;2022-09-27T00:55:47;25.98;;;12.88;;
67717;SDS011;54511;47.532;19.180;2022-09-27T00:58:17;27.85;;;13.52;;
67717;SDS011;54511;47.532;19.180;2022-09-27T01:00:50;24.17;;;12.05;;
67717;SDS011;54511;47.532;19.180;2022-09-27T01:03:22;25.92;;;12.95;;
67717;SDS011;54511;47.532;19.180;2022-09-27T01:05:52;25.45;;;12.35;;
67717;SDS011;54511;47.532;19.180;2022-09-27T01:08:19;24.20;;;12.35;;
67717;SDS011;54511;47.532;19.180;2022-09-27T01:10:50;26.92;;;12.32;;
67717;SDS011;54511;47.532;19.180;2022-09-27T01:13:22;24.35;;;11.38;;
67717;SDS011;54511;47.532;19.180;2022-09-27T01:15:57;24.70;;;12.82;;
67717;SDS011;54511;47.532;19.180;2022-09-27T01:18:31;28.70;;;12.48;;
67717;SDS011;54511;47.532;19.180;2022-09-27T01:21:14;23.05;;;12.43;;
67717;SDS011;54511;47.532;19.180;2022-09-27T01:24:28;30.40;;;12.93;;
67717;SDS011;54511;47.532;19.180;2022-09-27T01:30:26;22.25;;;11.60;;
67717;SDS011;54511;47.532;19.180;2022-09-27T01:32:57;24.60;;;12.15;;
67717;SDS011;54511;47.532;19.180;2022-09-27T01:35:35;24.25;;;12.13;;
67717;SDS011;54511;47.532;19.180;2022-09-27T01:38:10;24.58;;;12.30;;
67717;SDS011;54511;47.532;19.180;2022-09-27T01:40:42;22.17;;;11.45;;
67717;SDS011;54511;47.532;19.180;2022-09-27T01:43:17;25.08;;;11.65;;
67717;SDS011;54511;47.532;19.180;2022-09-27T01:45:51;24.98;;;11.57;;
67717;SDS011;54511;47.532;19.180;2022-09-27T01:48:21;23.80;;;11.82;;
67717;SDS011;54511;47.532;19.180;2022-09-27T01:50:50;22.98;;;11.35;;
67717;SDS011;54511;47.532;19.180;2022-09-27T01:53:20;20.40;;;10.25;;
67717;SDS011;54511;47.532;19.180;2022-09-27T01:55:50;21.55;;;10.98;;
67717;SDS011;54511;47.532;19.180;2022-09-27T01:58:21;21.98;;;11.30;;
67717;SDS011;54511;47.532;19.180;2022-09-27T02:00:53;22.13;;;10.30;;
67717;SDS011;54511;47.532;19.180;2022-09-27T02:03:23;22.25;;;11.02;;
67717;SDS011;54511;47.532;19.180;2022-09-27T02:05:54;21.20;;;11.02;;
67717;SDS011;54511;47.532;19.180;2022-09-27T02:08:25;21.92;;;10.15;;
67717;SDS011;54511;47.532;19.180;2022-09-27T02:10:56;24.83;;;10.85;;
67717;SDS011;54511;47.532;19.180;2022-09-27T02:13:37;24.83;;;12.20;;
67717;SDS011;54511;47.532;19.180;2022-09-27T02:16:12;26.60;;;11.82;;
67717;SDS011;54511;47.532;19.180;2022-09-27T02:18:50;23.98;;;11.77;;
67717;SDS011;54511;47.532;19.180;2022-09-27T02:21:21;24.15;;;11.45;;
67717;SDS011;54511;47.532;19.180;2022-09-27T02:23:52;23.92;;;11.88;;
67717;SDS011;54511;47.532;19.180;2022-09-27T02:26:26;26.00;;;11.95;;
67717;SDS011;54511;47.532;19.180;2022-09-27T02:29:02;22.55;;;11.27;;
67717;SDS011;54511;47.532;19.180;2022-09-27T02:31:34;24.67;;;11.55;;
67717;SDS011;54511;47.532;19.180;2022-09-27T02:34:02;22.45;;;11.52;;
67717;SDS011;54511;47.532;19.180;2022-09-27T02:36:32;22.75;;;11.63;;
67717;SDS011;54511;47.532;19.180;2022-09-27T02:39:00;23.95;;;11.50;;
67717;SDS011;54511;47.532;19.180;2022-09-27T02:41:29;17.60;;;9.55;;
67717;SDS011;54511;47.532;19.180;2022-09-27T02:43:57;20.80;;;9.90;;
67717;SDS011;54511;47.532;19.180;2022-09-27T02:46:38;22.70;;;11.32;;
67717;SDS011;54511;47.532;19.180;2022-09-27T02:49:23;23.17;;;10.85;;
67717;SDS011;54511;47.532;19.180;2022-09-27T02:51:59;21.87;;;10.82;;
67717;SDS011;54511;47.532;19.180;2022-09-27T02:54:37;25.98;;;11.50;;
67717;SDS011;54511;47.532;19.180;2022-09-27T02:57:11;25.50;;;11.98;;
67717;SDS011;54511;47.532;19.180;2022-09-27T02:59:49;26.05;;;11.02;;
67717;SDS011;54511;47.532;19.180;2022-09-27T03:04:50;20.05;;;9.57;;
67717;SDS011;54511;47.532;19.180;2022-09-27T03:07:23;18.73;;;9.27;;
67717;SDS011;54511;47.532;19.180;2022-09-27T03:09:52;17.73;;;9.38;;
67717;SDS011;54511;47.532;19.180;2022-09-27T03:12:20;23.73;;;11.12;;
67717;SDS011;54511;47.532;19.180;2022-09-27T03:14:51;24.37;;;11.02;;
67717;SDS011;54511;47.532;19.180;2022-09-27T03:17:18;20.80;;;10.07;;
67717;SDS011;54511;47.532;19.180;2022-09-27T03:19:47;27.80;;;10.90;;
67717;SDS011;54511;47.532;19.180;2022-09-27T03:22:15;25.20;;;11.35;;
67717;SDS011;54511;47.532;19.180;2022-09-27T03:24:44;24.77;;;11.18;;
67717;SDS011;54511;47.532;19.180;2022-09-27T03:27:11;22.92;;;10.43;;
67717;SDS011;54511;47.532;19.180;2022-09-27T03:29:38;23.95;;;10.82;;
67717;SDS011;54511;47.532;19.180;2022-09-27T03:32:06;21.35;;;10.95;;
67717;SDS011;54511;47.532;19.180;2022-09-27T03:34:34;20.90;;;9.57;;
67717;SDS011;54511;47.532;19.180;2022-09-27T03:37:03;17.08;;;8.35;;
67717;SDS011;54511;47.532;19.180;2022-09-27T03:39:30;16.35;;;8.02;;
67717;SDS011;54511;47.532;19.180;2022-09-27T03:41:57;22.05;;;9.25;;
67717;SDS011;54511;47.532;19.180;2022-09-27T03:44:24;19.95;;;9.95;;
67717;SDS011;54511;47.532;19.180;2022-09-27T03:46:51;21.95;;;10.13;;
67717;SDS011;54511;47.532;19.180;2022-09-27T03:49:18;20.83;;;10.20;;
67717;SDS011;54511;47.532;19.180;2022-09-27T03:51:45;24.12;;;10.45;;
67717;SDS011;54511;47.532;19.180;2022-09-27T03:54:16;26.50;;;10.90;;
67717;SDS011;54511;47.532;19.180;2022-09-27T03:56:44;23.08;;;9.70;;
67717;SDS011;54511;47.532;19.180;2022-09-27T03:59:11;22.48;;;10.27;;
67717;SDS011;54511;47.532;19.180;2022-09-27T04:01:39;23.00;;;10.35;;
67717;SDS011;54511;47.532;19.180;2022-09-27T04:04:07;25.65;;;10.98;;
67717;SDS011;54511;47.532;19.180;2022-09-27T04:06:35;24.75;;;11.30;;
67717;SDS011;54511;47.532;19.180;2022-09-27T04:09:02;23.48;;;11.10;;
67717;SDS011;54511;47.532;19.180;2022-09-27T04:11:56;21.48;;;10.35;;
67717;SDS011;54511;47.532;19.180;2022-09-27T04:14:24;22.83;;;10.93;;
67717;SDS011;54511;47.532;19.180;2022-09-27T04:16:52;24.23;;;11.52;;
67717;SDS011;54511;47.532;19.180;2022-09-27T04:19:19;24.90;;;11.48;;
67717;SDS011;54511;47.532;19.180;2022-09-27T04:21:55;21.23;;;9.93;;
67717;SDS011;54511;47.532;19.180;2022-09-27T04:24:23;23.77;;;11.68;;
67717;SDS011;54511;47.532;19.180;2022-09-27T04:26:53;24.85;;;10.77;;
67717;SDS011;54511;47.532;19.180;2022-09-27T04:29:40;23.12;;;11.20;;
67717;SDS011;54511;47.532;19.180;2022-09-27T04:32:09;19.95;;;9.13;;
67717;SDS011;54511;47.532;19.180;2022-09-27T04:34:41;29.55;;;11.38;;
67717;SDS011;54511;47.532;19.180;2022-09-27T04:37:25;22.87;;;10.63;;
67717;SDS011;54511;47.532;19.180;2022-09-27T04:39:54;22.50;;;10.40;;
67717;SDS011;54511;47.532;19.180;2022-09-27T04:42:23;22.67;;;10.02;;
67717;SDS011;54511;47.532;19.180;2022-09-27T04:44:51;21.10;;;10.60;;
67717;SDS011;54511;47.532;19.180;2022-09-27T04:47:18;22.52;;;10.60;;
67717;SDS011;54511;47.532;19.180;2022-09-27T04:49:45;22.45;;;11.02;;
67717;SDS011;54511;47.532;19.180;2022-09-27T04:52:14;23.52;;;10.95;;
67717;SDS011;54511;47.532;19.180;2022-09-27T04:54:41;21.00;;;10.30;;
67717;SDS011;54511;47.532;19.180;2022-09-27T04:57:10;21.73;;;10.90;;
67717;SDS011;54511;47.532;19.180;2022-09-27T04:59:38;22.62;;;10.60;;
67717;SDS011;54511;47.532;19.180;2022-09-27T05:02:06;23.73;;;10.68;;
67717;SDS011;54511;47.532;19.180;2022-09-27T05:04:33;21.65;;;11.15;;
67717;SDS011;54511;47.532;19.180;2022-09-27T05:07:00;21.50;;;10.73;;
67717;SDS011;54511;47.532;19.180;2022-09-27T05:09:28;24.05;;;11.10;;
67717;SDS011;54511;47.532;19.180;2022-09-27T05:12:02;23.75;;;11.12;;
67717;SDS011;54511;47.532;19.180;2022-09-27T05:14:33;24.52;;;10.73;;
67717;SDS011;54511;47.532;19.180;2022-09-27T05:17:21;23.95;;;10.77;;
67717;SDS011;54511;47.532;19.180;2022-09-27T05:20:08;24.33;;;11.50;;
67717;SDS011;54511;47.532;19.180;2022-09-27T05:22:35;24.55;;;11.98;;
67717;SDS011;54511;47.532;19.180;2022-09-27T05:25:12;27.13;;;11.75;;
67717;SDS011;54511;47.532;19.180;2022-09-27T05:27:40;23.17;;;11.80;;
67717;SDS011;54511;47.532;19.180;2022-09-27T05:30:10;27.00;;;12.35;;
67717;SDS011;54511;47.532;19.180;2022-09-27T05:33:02;24.52;;;11.30;;
67717;SDS011;54511;47.532;19.180;2022-09-27T05:35:29;27.85;;;11.68;;
67717;SDS011;54511;47.532;19.180;2022-09-27T05:37:58;28.87;;;12.55;;
67717;SDS011;54511;47.532;19.180;2022-09-27T05:40:26;28.20;;;12.35;;
67717;SDS011;54511;47.532;19.180;2022-09-27T05:42:54;26.02;;;11.77;;
67717;SDS011;54511;47.532;19.180;2022-09-27T05:45:24;25.75;;;12.80;;
67717;SDS011;54511;47.532;19.180;2022-09-27T05:47:51;28.92;;;13.25;;
67717;SDS011;54511;47.532;19.180;2022-09-27T05:50:19;30.83;;;14.55;;
67717;SDS011;54511;47.532;19.180;2022-09-27T05:52:46;31.70;;;14.18;;
67717;SDS011;54511;47.532;19.180;2022-09-27T05:55:14;31.95;;;15.02;;
67717;SDS011;54511;47.532;19.180;2022-09-27T05:57:41;28.12;;;14.45;;
67717;SDS011;54511;47.532;19.180;2022-09-27T06:00:09;29.30;;;14.35;;
67717;SDS011;54511;47.532;19.180;2022-09-27T06:02:38;34.88;;;15.35;;
67717;SDS011;54511;47.532;19.180;2022-09-27T06:05:06;30.77;;;14.10;;
67717;SDS011;54511;47.532;19.180;2022-09-27T06:07:33;30.17;;;13.70;;
67717;SDS011;54511;47.532;19.180;2022-09-27T06:10:03;28.67;;;13.68;;
67717;SDS011;54511;47.532;19.180;2022-09-27T06:12:31;33.88;;;14.65;;
67717;SDS011;54511;47.532;19.180;2022-09-27T06:14:58;34.08;;;14.63;;
67717;SDS011;54511;47.532;19.180;2022-09-27T06:17:25;28.87;;;13.88;;
67717;SDS011;54511;47.532;19.180;2022-09-27T06:19:53;31.35;;;13.82;;
67717;SDS011;54511;47.532;19.180;2022-09-27T06:22:22;32.67;;;14.45;;
67717;SDS011;54511;47.532;19.180;2022-09-27T06:24:49;32.22;;;14.32;;
67717;SDS011;54511;47.532;19.180;2022-09-27T06:27:17;33.10;;;15.27;;
67717;SDS011;54511;47.532;19.180;2022-09-27T06:29:45;28.30;;;14.07;;
67717;SDS011;54511;47.532;19.180;2022-09-27T06:32:12;33.05;;;15.63;;
67717;SDS011;54511;47.532;19.180;2022-09-27T06:34:38;32.95;;;15.55;;
67717;SDS011;54511;47.532;19.180;2022-09-27T06:37:10;32.60;;;15.27;;
67717;SDS011;54511;47.532;19.180;2022-09-27T06:39:37;33.75;;;15.98;;
67717;SDS011;54511;47.532;19.180;2022-09-27T06:42:04;31.80;;;15.07;;
67717;SDS011;54511;47.532;19.180;2022-09-27T06:44:34;30.05;;;15.57;;
67717;SDS011;54511;47.532;19.180;2022-09-27T06:47:01;33.30;;;16.50;;
67717;SDS011;54511;47.532;19.180;2022-09-27T06:49:28;28.52;;;15.30;;
67717;SDS011;54511;47.532;19.180;2022-09-27T06:51:55;38.45;;;16.27;;
67717;SDS011;54511;47.532;19.180;2022-09-27T06:54:24;33.85;;;15.55;;
67717;SDS011;54511;47.532;19.180;2022-09-27T06:56:52;33.78;;;15.23;;
67717;SDS011;54511;47.532;19.180;2022-09-27T06:59:19;32.13;;;14.98;;
67717;SDS011;54511;47.532;19.180;2022-09-27T07:02:04;30.50;;;14.18;;
67717;SDS011;54511;47.532;19.180;2022-09-27T07:04:31;29.40;;;14.10;;
67717;SDS011;54511;47.532;19.180;2022-09-27T07:06:58;30.15;;;14.57;;
67717;SDS011;54511;47.532;19.180;2022-09-27T07:09:26;28.35;;;13.88;;
67717;SDS011;54511;47.532;19.180;2022-09-27T07:11:53;26.27;;;13.10;;
67717;SDS011;54511;47.532;19.180;2022-09-27T07:14:20;27.08;;;13.48;;
67717;SDS011;54511;47.532;19.180;2022-09-27T07:16:47;26.48;;;12.63;;
67717;SDS011;54511;47.532;19.180;2022-09-27T07:19:15;23.62;;;12.37;;
67717;SDS011;54511;47.532;19.180;2022-09-27T07:21:42;24.20;;;12.23;;
67717;SDS011;54511;47.532;19.180;2022-09-27T07:24:10;24.27;;;12.20;;
67717;SDS011;54511;47.532;19.180;2022-09-27T07:26:39;23.85;;;12.02;;
67717;SDS011;54511;47.532;19.180;2022-09-27T07:29:06;24.33;;;11.77;;
67717;SDS011;54511;47.532;19.180;2022-09-27T07:31:33;24.48;;;12.77;;
67717;SDS011;54511;47.532;19.180;2022-09-27T07:34:00;28.77;;;12.50;;
67717;SDS011;54511;47.532;19.180;2022-09-27T07:36:27;23.05;;;11.68;;
67717;SDS011;54511;47.532;19.180;2022-09-27T07:38:57;22.45;;;11.80;;
67717;SDS011;54511;47.532;19.180;2022-09-27T07:41:24;22.60;;;10.80;;
67717;SDS011;54511;47.532;19.180;2022-09-27T07:43:53;22.48;;;10.77;;
67717;SDS011;54511;47.532;19.180;2022-09-27T07:46:21;19.83;;;11.20;;
67717;SDS011;54511;47.532;19.180;2022-09-27T07:48:49;20.00;;;10.55;;
67717;SDS011;54511;47.532;19.180;2022-09-27T07:51:16;19.05;;;10.38;;
67717;SDS011;54511;47.532;19.180;2022-09-27T07:53:43;21.20;;;10.25;;
67717;SDS011;54511;47.532;19.180;2022-09-27T07:56:10;21.52;;;10.85;;
67717;SDS011;54511;47.532;19.180;2022-09-27T07:58:37;19.80;;;10.30;;
67717;SDS011;54511;47.532;19.180;2022-09-27T08:01:05;23.70;;;10.20;;
67717;SDS011;54511;47.532;19.180;2022-09-27T08:03:34;22.05;;;10.77;;
67717;SDS011;54511;47.532;19.180;2022-09-27T08:06:02;21.75;;;10.80;;
67717;SDS011;54511;47.532;19.180;2022-09-27T08:08:32;19.48;;;9.52;;
67717;SDS011;54511;47.532;19.180;2022-09-27T08:10:59;19.85;;;10.85;;
67717;SDS011;54511;47.532;19.180;2022-09-27T08:13:26;20.20;;;10.50;;
67717;SDS011;54511;47.532;19.180;2022-09-27T08:15:53;20.00;;;9.98;;
67717;SDS011;54511;47.532;19.180;2022-09-27T08:18:22;20.05;;;10.32;;
67717;SDS011;54511;47.532;19.180;2022-09-27T08:20:49;20.95;;;10.60;;
67717;SDS011;54511;47.532;19.180;2022-09-27T08:23:16;19.90;;;9.77;;
67717;SDS011;54511;47.532;19.180;2022-09-27T08:25:43;21.77;;;10.15;;
67717;SDS011;54511;47.532;19.180;2022-09-27T08:28:10;18.25;;;9.52;;
67717;SDS011;54511;47.532;19.180;2022-09-27T08:30:37;18.02;;;9.82;;
67717;SDS011;54511;47.532;19.180;2022-09-27T08:33:04;19.02;;;10.38;;
67717;SDS011;54511;47.532;19.180;2022-09-27T08:35:34;22.92;;;11.40;;
67717;SDS011;54511;47.532;19.180;2022-09-27T08:38:02;22.02;;;11.18;;
67717;SDS011;54511;47.532;19.180;2022-09-27T08:40:30;23.35;;;11.38;;
67717;SDS011;54511;47.532;19.180;2022-09-27T08:43:09;37.35;;;12.18;;
67717;SDS011;54511;47.532;19.180;2022-09-27T08:45:45;26.48;;;12.37;;
67717;SDS011;54511;47.532;19.180;2022-09-27T08:48:21;21.50;;;11.15;;
67717;SDS011;54511;47.532;19.180;2022-09-27T08:50:52;21.58;;;10.68;;
67717;SDS011;54511;47.532;19.180;2022-09-27T08:53:20;22.27;;;11.20;;
67717;SDS011;54511;47.532;19.180;2022-09-27T08:55:49;20.45;;;10.82;;
67717;SDS011;54511;47.532;19.180;2022-09-27T08:58:19;24.98;;;11.38;;
67717;SDS011;54511;47.532;19.180;2022-09-27T09:00:49;21.48;;;11.48;;
67717;SDS011;54511;47.532;19.180;2022-09-27T09:03:17;22.35;;;11.20;;
67717;SDS011;54511;47.532;19.180;2022-09-27T09:05:47;21.62;;;10.88;;
67717;SDS011;54511;47.532;19.180;2022-09-27T09:08:27;24.73;;;11.95;;
67717;SDS011;54511;47.532;19.180;2022-09-27T09:11:01;21.73;;;10.93;;
67717;SDS011;54511;47.532;19.180;2022-09-27T09:13:54;22.23;;;11.23;;
67717;SDS011;54511;47.532;19.180;2022-09-27T09:19:11;24.20;;;10.75;;
67717;SDS011;54511;47.532;19.180;2022-09-27T09:21:50;48.22;;;17.08;;
67717;SDS011;54511;47.532;19.180;2022-09-27T09:24:26;23.77;;;11.20;;
67717;SDS011;54511;47.532;19.180;2022-09-27T09:27:02;21.35;;;10.82;;
67717;SDS011;54511;47.532;19.180;2022-09-27T09:29:36;20.15;;;11.00;;
67717;SDS011;54511;47.532;19.180;2022-09-27T09:32:18;23.95;;;11.50;;
67717;SDS011;54511;47.532;19.180;2022-09-27T09:34:53;23.52;;;11.02;;
67717;SDS011;54511;47.532;19.180;2022-09-27T09:37:27;25.65;;;11.45;;
67717;SDS011;54511;47.532;19.180;2022-09-27T09:40:02;64.53;;;23.65;;
67717;SDS011;54511;47.532;19.180;2022-09-27T09:42:32;38.53;;;15.07;;
67717;SDS011;54511;47.532;19.180;2022-09-27T09:45:01;68.07;;;23.35;;
67717;SDS011;54511;47.532;19.180;2022-09-27T09:47:32;26.30;;;12.68;;
67717;SDS011;54511;47.532;19.180;2022-09-27T09:50:02;26.20;;;12.45;;
67717;SDS011;54511;47.532;19.180;2022-09-27T09:52:35;23.92;;;12.02;;
67717;SDS011;54511;47.532;19.180;2022-09-27T09:55:06;25.83;;;13.20;;
67717;SDS011;54511;47.532;19.180;2022-09-27T09:57:42;26.15;;;12.37;;
67717;SDS011;54511;47.532;19.180;2022-09-27T10:00:18;27.20;;;12.95;;
67717;SDS011;54511;47.532;19.180;2022-09-27T10:02:45;34.45;;;15.80;;
67717;SDS011;54511;47.532;19.180;2022-09-27T10:05:14;27.50;;;11.60;;
67717;SDS011;54511;47.532;19.180;2022-09-27T10:07:46;26.37;;;11.68;;
67717;SDS011;54511;47.532;19.180;2022-09-27T10:12:42;31.73;;;12.07;;
67717;SDS011;54511;47.532;19.180;2022-09-27T10:15:13;24.77;;;11.68;;
67717;SDS011;54511;47.532;19.180;2022-09-27T10:17:41;24.63;;;11.55;;
67717;SDS011;54511;47.532;19.180;2022-09-27T10:20:14;27.27;;;11.90;;
67717;SDS011;54511;47.532;19.180;2022-09-27T10:22:52;26.87;;;12.37;;
67717;SDS011;54511;47.532;19.180;2022-09-27T10:25:20;25.55;;;12.25;;
67717;SDS011;54511;47.532;19.180;2022-09-27T10:27:48;27.02;;;12.30;;
67717;SDS011;54511;47.532;19.180;2022-09-27T10:30:24;24.30;;;12.55;;
67717;SDS011;54511;47.532;19.180;2022-09-27T10:32:52;26.10;;;12.20;;
67717;SDS011;54511;47.532;19.180;2022-09-27T10:35:32;25.37;;;11.43;;
67717;SDS011;54511;47.532;19.180;2022-09-27T10:38:16;26.20;;;11.63;;
67717;SDS011;54511;47.532;19.180;2022-09-27T10:40:50;23.87;;;10.93;;
67717;SDS011;54511;47.532;19.180;2022-09-27T10:43:24;27.52;;;11.95;;
67717;SDS011;54511;47.532;19.180;2022-09-27T10:46:02;26.02;;;11.68;;
67717;SDS011;54511;47.532;19.180;2022-09-27T10:48:32;26.67;;;11.10;;
67717;SDS011;54511;47.532;19.180;2022-09-27T10:50:59;22.23;;;10.63;;
67717;SDS011;54511;47.532;19.180;2022-09-27T10:53:29;22.85;;;10.88;;
67717;SDS011;54511;47.532;19.180;2022-09-27T10:55:57;21.73;;;10.73;;
67717;SDS011;54511;47.532;19.180;2022-09-27T10:58:25;21.42;;;9.95;;
67717;SDS011;54511;47.532;19.180;2022-09-27T11:00:54;22.80;;;10.32;;
67717;SDS011;54511;47.532;19.180;2022-09-27T11:03:22;22.00;;;10.60;;
67717;SDS011;54511;47.532;19.180;2022-09-27T11:05:50;22.08;;;10.18;;
67717;SDS011;54511;47.532;19.180;2022-09-27T11:08:20;22.10;;;10.75;;
67717;SDS011;54511;47.532;19.180;2022-09-27T11:13:30;21.15;;;10.90;;
67717;SDS011;54511;47.532;19.180;2022-09-27T11:16:03;22.13;;;10.48;;
67717;SDS011;54511;47.532;19.180;2022-09-27T11:18:39;23.27;;;11.43;;
67717;SDS011;54511;47.532;19.180;2022-09-27T11:23:45;23.40;;;10.90;;
67717;SDS011;54511;47.532;19.180;2022-09-27T11:26:32;27.50;;;11.12;;
67717;SDS011;54511;47.532;19.180;2022-09-27T11:29:09;24.23;;;10.80;;
67717;SDS011;54511;47.532;19.180;2022-09-27T11:31:45;26.90;;;11.48;;
67717;SDS011;54511;47.532;19.180;2022-09-27T11:34:36;24.17;;;11.23;;
67717;SDS011;54511;47.532;19.180;2022-09-27T11:37:14;24.95;;;11.05;;
67717;SDS011;54511;47.532;19.180;2022-09-27T11:39:50;26.65;;;11.10;;
67717;SDS011;54511;47.532;19.180;2022-09-27T11:42:29;27.27;;;10.73;;
67717;SDS011;54511;47.532;19.180;2022-09-27T11:45:11;29.63;;;11.95;;
67717;SDS011;54511;47.532;19.180;2022-09-27T11:47:48;26.75;;;11.35;;
67717;SDS011;54511;47.532;19.180;2022-09-27T11:53:16;26.12;;;11.23;;
67717;SDS011;54511;47.532;19.180;2022-09-27T11:55:50;26.23;;;11.60;;
67717;SDS011;54511;47.532;19.180;2022-09-27T11:58:28;26.52;;;11.30;;
67717;SDS011;54511;47.532;19.180;2022-09-27T12:01:02;29.05;;;11.00;;
67717;SDS011;54511;47.532;19.180;2022-09-27T12:03:39;31.15;;;12.07;;
67717;SDS011;54511;47.532;19.180;2022-09-27T12:06:30;26.37;;;10.70;;
67717;SDS011;54511;47.532;19.180;2022-09-27T12:09:03;25.55;;;11.23;;
67717;SDS011;54511;47.532;19.180;2022-09-27T12:11:35;26.27;;;11.88;;
67717;SDS011;54511;47.532;19.180;2022-09-27T12:14:07;31.23;;;11.63;;
67717;SDS011;54511;47.532;19.180;2022-09-27T12:16:38;29.12;;;11.77;;
67717;SDS011;54511;47.532;19.180;2022-09-27T12:19:09;30.58;;;11.48;;
67717;SDS011;54511;47.532;19.180;2022-09-27T12:21:39;25.98;;;11.77;;
67717;SDS011;54511;47.532;19.180;2022-09-27T12:24:08;26.90;;;11.20;;
67717;SDS011;54511;47.532;19.180;2022-09-27T12:26:41;28.85;;;11.55;;
67717;SDS011;54511;47.532;19.180;2022-09-27T12:29:13;26.85;;;11.93;;
67717;SDS011;54511;47.532;19.180;2022-09-27T12:31:43;25.95;;;10.65;;
67717;SDS011;54511;47.532;19.180;2022-09-27T12:34:13;26.27;;;11.48;;
67717;SDS011;54511;47.532;19.180;2022-09-27T12:36:42;26.65;;;10.90;;
67717;SDS011;54511;47.532;19.180;2022-09-27T12:39:14;29.45;;;10.93;;
67717;SDS011;54511;47.532;19.180;2022-09-27T12:41:46;24.98;;;9.90;;
67717;SDS011;54511;47.532;19.180;2022-09-27T12:44:17;22.05;;;9.68;;
67717;SDS011;54511;47.532;19.180;2022-09-27T12:46:48;21.08;;;10.23;;
67717;SDS011;54511;47.532;19.180;2022-09-27T12:49:26;23.25;;;10.30;;
67717;SDS011;54511;47.532;19.180;2022-09-27T12:51:58;27.45;;;10.75;;
67717;SDS011;54511;47.532;19.180;2022-09-27T12:54:36;22.67;;;10.52;;
67717;SDS011;54511;47.532;19.180;2022-09-27T12:57:16;22.37;;;10.27;;
67717;SDS011;54511;47.532;19.180;2022-09-27T12:59:57;21.80;;;10.07;;
67717;SDS011;54511;47.532;19.180;2022-09-27T13:02:51;24.83;;;10.73;;
67717;SDS011;54511;47.532;19.180;2022-09-27T13:05:31;21.52;;;10.68;;
67717;SDS011;54511;47.532;19.180;2022-09-27T13:08:18;21.37;;;9.88;;
67717;SDS011;54511;47.532;19.180;2022-09-27T13:10:53;23.27;;;10.55;;
67717;SDS011;54511;47.532;19.180;2022-09-27T13:13:23;24.33;;;11.73;;
67717;SDS011;54511;47.532;19.180;2022-09-27T13:15:55;24.37;;;11.90;;
67717;SDS011;54511;47.532;19.180;2022-09-27T13:18:28;22.20;;;10.98;;
67717;SDS011;54511;47.532;19.180;2022-09-27T13:20:58;24.15;;;11.02;;
67717;SDS011;54511;47.532;19.180;2022-09-27T13:26:45;22.45;;;10.55;;
67717;SDS011;54511;47.532;19.180;2022-09-27T13:29:21;18.77;;;9.52;;
67717;SDS011;54511;47.532;19.180;2022-09-27T13:34:52;18.80;;;9.52;;
67717;SDS011;54511;47.532;19.180;2022-09-27T13:37:21;16.05;;;7.80;;
67717;SDS011;54511;47.532;19.180;2022-09-27T13:40:08;18.65;;;8.32;;
67717;SDS011;54511;47.532;19.180;2022-09-27T13:42:38;20.73;;;9.50;;
67717;SDS011;54511;47.532;19.180;2022-09-27T13:45:18;19.25;;;9.45;;
67717;SDS011;54511;47.532;19.180;2022-09-27T13:47:49;18.25;;;8.60;;
67717;SDS011;54511;47.532;19.180;2022-09-27T13:50:19;16.48;;;7.95;;
67717;SDS011;54511;47.532;19.180;2022-09-27T13:52:55;14.95;;;7.65;;
67717;SDS011;54511;47.532;19.180;2022-09-27T13:55:39;17.48;;;7.93;;
67717;SDS011;54511;47.532;19.180;2022-09-27T13:58:26;14.48;;;7.90;;
67717;SDS011;54511;47.532;19.180;2022-09-27T14:01:10;14.00;;;7.85;;
67717;SDS011;54511;47.532;19.180;2022-09-27T14:03:55;14.50;;;7.22;;
67717;SDS011;54511;47.532;19.180;2022-09-27T14:06:25;16.12;;;7.72;;
67717;SDS011;54511;47.532;19.180;2022-09-27T14:08:56;16.08;;;8.13;;
67717;SDS011;54511;47.532;19.180;2022-09-27T14:11:27;15.57;;;7.80;;
67717;SDS011;54511;47.532;19.180;2022-09-27T14:13:56;13.07;;;7.30;;
67717;SDS011;54511;47.532;19.180;2022-09-27T14:16:33;14.48;;;8.18;;
67717;SDS011;54511;47.532;19.180;2022-09-27T14:21:37;14.85;;;7.55;;
67717;SDS011;54511;47.532;19.180;2022-09-27T14:24:21;17.83;;;9.43;;
67717;SDS011;54511;47.532;19.180;2022-09-27T14:26:50;18.60;;;9.27;;
67717;SDS011;54511;47.532;19.180;2022-09-27T14:29:47;14.27;;;7.07;;
67717;SDS011;54511;47.532;19.180;2022-09-27T14:32:17;6.47;;;3.40;;
67717;SDS011;54511;47.532;19.180;2022-09-27T14:34:47;7.22;;;3.20;;
67717;SDS011;54511;47.532;19.180;2022-09-27T14:38:29;9.85;;;3.53;;
67717;SDS011;54511;47.532;19.180;2022-09-27T14:41:36;9.63;;;4.10;;
67717;SDS011;54511;47.532;19.180;2022-09-27T14:44:43;6.43;;;2.60;;
67717;SDS011;54511;47.532;19.180;2022-09-27T14:48:17;8.05;;;3.10;;
67717;SDS011;54511;47.532;19.180;2022-09-27T14:51:51;5.57;;;2.42;;
67717;SDS011;54511;47.532;19.180;2022-09-27T14:55:28;1.75;;;1.08;;
67717;SDS011;54511;47.532;19.180;2022-09-27T14:58:38;4.37;;;1.30;;
67717;SDS011;54511;47.532;19.180;2022-09-27T15:02:16;7.03;;;2.10;;
67717;SDS011;54511;47.532;19.180;2022-09-27T15:05:43;1.83;;;1.10;;
67717;SDS011;54511;47.532;19.180;2022-09-27T15:08:52;8.13;;;3.22;;
67717;SDS011;54511;47.532;19.180;2022-09-27T15:12:22;11.48;;;4.53;;
67717;SDS011;54511;47.532;19.180;2022-09-27T15:15:29;4.30;;;2.00;;